Cotui, Dominican Republic
Current Conditions -  °F | °C
As of 1:00 PM on Saturday 25 Oct 2014 (Local Time) from MDST Reporting Station
Broken Clouds Broken Clouds  
Wind Chill: 88°   Ceiling: 30000
Heat Index: 96°   Visibility: 6mi
Dew Point: 73°   Wind: 8mph
Humidity: 62%   Direction: 140°SE
Pressure: 29.83"   Gusts: NA
Location:  19.06°N, 70.15°W
Report Text: MDST 251700Z 14007KT 9999 SCT027 BKN300 31/23 Q1010
Loading
Personal Weather Stations






























Interactive Weather Map
Tropical Storm Tracking
New forecast layout! Learn more

10-Day Weather Forecast

Advertisements
Track Severe Weather on mobile